createdAt,value
2023-02-01T00:02:46.983Z,98505.23
2023-02-01T00:07:49.629Z,98498.33
2023-02-01T00:12:50.973Z,98507.05
2023-02-01T00:17:55.745Z,98511.64
2023-02-01T00:22:57.075Z,98510.54
2023-02-01T00:27:59.925Z,98510.64
2023-02-01T00:33:01.231Z,98506.59
2023-02-01T00:38:03.490Z,98510.45
2023-02-01T00:43:05.014Z,98510.08
2023-02-01T00:48:06.493Z,98505.50
2023-02-01T00:53:09.243Z,98512.20
2023-02-01T00:58:10.767Z,98513.67
2023-02-01T01:03:19.097Z,98517.73
2023-02-01T01:08:20.658Z,98517.90
2023-02-01T01:13:22.332Z,98519.96
2023-02-01T01:18:23.807Z,98518.34
2023-02-01T01:23:25.888Z,98512.75
2023-02-01T01:28:27.465Z,98513.84
2023-02-01T01:33:29.035Z,98507.02
2023-02-01T01:38:30.503Z,98503.46
2023-02-01T01:43:49.747Z,98499.39
2023-02-01T01:49:00.995Z,98487.55
2023-02-01T01:54:45.773Z,98486.76
2023-02-01T01:59:50.624Z,98490.55
2023-02-01T02:04:52.410Z,98494.80
2023-02-01T02:10:00.466Z,98494.39
2023-02-01T02:15:05.907Z,98493.92
2023-02-01T02:20:36.649Z,98494.73
2023-02-01T02:26:02.718Z,98495.84
2023-02-01T02:31:13.463Z,98498.70
2023-02-01T02:36:43.835Z,98503.63
2023-02-01T02:42:20.324Z,98510.99
2023-02-01T02:47:31.722Z,98510.52
2023-02-01T02:52:55.316Z,98504.68
2023-02-01T02:58:16.959Z,98500.27
2023-02-01T03:03:37.370Z,98496.25
2023-02-01T03:08:38.944Z,98495.19
2023-02-01T03:14:00.998Z,98495.67
2023-02-01T03:19:19.164Z,98499.91
2023-02-01T03:24:33.736Z,98504.77
2023-02-01T03:29:57.119Z,98506.89
2023-02-01T03:34:59.308Z,98502.41
2023-02-01T03:40:05.912Z,98502.54
2023-02-01T03:45:14.545Z,98498.99
2023-02-01T03:50:24.006Z,98500.17
2023-02-01T03:55:28.741Z,98500.59
2023-02-01T04:00:30.214Z,98496.15
2023-02-01T04:05:32.702Z,98489.22
2023-02-01T04:10:34.187Z,98492.90
2023-02-01T04:15:35.881Z,98499.42
2023-02-01T04:20:37.728Z,98499.19
2023-02-01T04:25:39.200Z,98496.77
2023-02-01T04:30:40.749Z,98502.75
2023-02-01T04:35:42.350Z,98510.35
2023-02-01T04:40:44.003Z,98502.44
2023-02-01T04:45:49.711Z,98502.79
2023-02-01T04:50:52.340Z,98501.24
2023-02-01T04:55:54.676Z,98499.41
2023-02-01T05:00:56.360Z,98500.27
2023-02-01T05:05:58.027Z,98498.73
2023-02-01T05:10:59.824Z,98499.10
2023-02-01T05:16:01.635Z,98495.03
2023-02-01T05:21:03.476Z,98491.71
2023-02-01T05:26:05.244Z,98490.48
2023-02-01T05:31:11.491Z,98485.45
2023-02-01T05:36:13.405Z,98483.30
2023-02-01T05:41:14.880Z,98494.52
2023-02-01T05:46:16.769Z,98509.52
2023-02-01T05:51:18.331Z,98515.33
2023-02-01T05:56:19.895Z,98508.79
2023-02-01T06:01:21.371Z,98508.14
2023-02-01T06:06:22.838Z,98513.14
2023-02-01T06:11:32.415Z,98510.55
2023-02-01T06:16:34.594Z,98518.95
2023-02-01T06:21:36.900Z,98517.53
2023-02-01T06:26:39.591Z,98523.06
2023-02-01T06:31:43.050Z,98524.33
2023-02-01T06:36:44.664Z,98518.27
2023-02-01T06:41:50.542Z,98519.26
2023-02-01T06:46:52.159Z,98515.22
2023-02-01T06:51:53.688Z,98519.89
2023-02-01T06:56:55.561Z,98514.97
2023-02-01T07:01:57.158Z,98511.70
2023-02-01T07:06:58.814Z,98517.46
2023-02-01T07:12:00.391Z,98511.05
2023-02-01T07:17:01.955Z,98509.15
2023-02-01T07:22:03.533Z,98504.34
2023-02-01T07:27:05.103Z,98508.58
2023-02-01T07:32:06.672Z,98510.98
2023-02-01T07:37:08.141Z,98518.28
2023-02-01T07:42:09.821Z,98518.45
2023-02-01T07:47:11.389Z,98518.36
2023-02-01T07:52:16.136Z,98511.22
2023-02-01T07:57:17.608Z,98514.21
2023-02-01T08:02:19.115Z,98517.16
2023-02-01T08:07:20.957Z,98512.44
2023-02-01T08:12:23.273Z,98514.98
2023-02-01T08:17:26.767Z,98514.09
2023-02-01T08:22:32.849Z,98517.38
2023-02-01T08:27:35.162Z,98523.10
2023-02-01T08:32:37.014Z,98530.43
2023-02-01T08:37:39.102Z,98536.04
2023-02-01T08:42:52.775Z,98535.69
2023-02-01T08:47:54.679Z,98537.27
2023-02-01T08:52:56.535Z,98536.42
2023-02-01T08:57:58.193Z,98537.68
2023-02-01T09:02:59.964Z,98539.86
2023-02-01T09:08:01.554Z,98542.77
2023-02-01T09:13:03.725Z,98543.63
2023-02-01T09:18:05.289Z,98543.11
2023-02-01T09:23:07.895Z,98543.21
2023-02-01T09:28:09.667Z,98540.13
2023-02-01T09:33:11.141Z,98539.40
2023-02-01T09:38:12.732Z,98549.16
2023-02-01T09:43:43.673Z,98548.47
2023-02-01T09:48:47.400Z,98547.85
2023-02-01T09:54:00.558Z,98546.90
2023-02-01T09:59:41.547Z,98557.65
2023-02-01T10:04:43.831Z,98555.77
2023-02-01T10:10:00.385Z,98562.29
2023-02-01T10:15:21.152Z,98553.52
2023-02-01T10:21:07.500Z,98541.46
2023-02-01T10:26:23.724Z,98546.34
2023-02-01T10:31:29.372Z,98544.20
2023-02-01T10:36:41.612Z,98551.98
2023-02-01T10:41:46.771Z,98553.34
2023-02-01T10:46:48.974Z,98551.23
2023-02-01T10:52:02.915Z,98549.23
2023-02-01T10:57:20.460Z,98550.56
2023-02-01T11:02:36.474Z,98551.80
2023-02-01T11:07:46.340Z,98549.61
2023-02-01T11:12:54.518Z,98549.42
2023-02-01T11:17:57.478Z,98555.90
2023-02-01T11:23:00.090Z,98557.02
2023-02-01T11:28:02.259Z,98555.70
2023-02-01T11:33:06.826Z,98554.17
2023-02-01T11:38:20.557Z,98550.41
2023-02-01T11:43:28.518Z,98539.54
2023-02-01T11:48:33.326Z,98540.61
2023-02-01T11:54:02.966Z,98539.84
2023-02-01T11:59:32.183Z,98541.98
2023-02-01T12:04:55.786Z,98547.15
2023-02-01T12:10:13.497Z,98546.06
2023-02-01T12:15:47.596Z,98540.66
2023-02-01T12:21:06.855Z,98538.53
2023-02-01T12:26:08.310Z,98545.16
2023-02-01T12:31:28.492Z,98544.64
2023-02-01T12:36:33.172Z,98547.55
2023-02-01T12:41:50.303Z,98552.89
2023-02-01T12:47:30.378Z,98550.45
2023-02-01T12:52:46.797Z,98555.43
2023-02-01T12:58:07.729Z,98558.38
2023-02-01T13:03:45.041Z,98559.06
2023-02-01T13:09:10.244Z,98564.36
2023-02-01T13:14:34.470Z,98561.41
2023-02-01T13:19:35.943Z,98564.39
2023-02-01T13:24:57.388Z,98557.42
2023-02-01T13:30:30.837Z,98559.48
2023-02-01T13:35:54.386Z,98563.45
2023-02-01T13:41:17.768Z,98562.78
2023-02-01T13:46:20.920Z,98551.76
2023-02-01T13:51:36.683Z,98550.77
2023-02-01T13:56:44.195Z,98547.08
2023-02-01T14:01:47.073Z,98543.54
2023-02-01T14:06:53.588Z,98550.46
2023-02-01T14:11:59.640Z,98549.13
2023-02-01T14:17:01.142Z,98545.88
2023-02-01T14:22:14.897Z,98544.33
2023-02-01T14:27:22.166Z,98539.98
2023-02-01T14:32:28.485Z,98543.79
2023-02-01T14:37:39.865Z,98535.91
2023-02-01T14:42:47.248Z,98539.29
2023-02-01T14:48:05.155Z,98556.08
2023-02-01T14:53:12.792Z,98562.64
2023-02-01T14:58:44.756Z,98571.86
2023-02-01T15:04:07.951Z,98571.69
2023-02-01T15:09:17.085Z,98572.64
2023-02-01T15:14:18.656Z,98581.58
2023-02-01T15:19:23.199Z,98592.51
2023-02-01T15:24:30.615Z,98597.76
2023-02-01T15:29:35.153Z,98606.65
2023-02-01T15:34:50.382Z,98606.92
2023-02-01T15:40:22.433Z,98614.75
2023-02-01T15:45:30.250Z,98627.31
2023-02-01T15:50:32.788Z,98627.61
2023-02-01T15:55:40.386Z,98625.39
2023-02-01T16:00:52.993Z,98630.38
2023-02-01T16:06:00.498Z,98630.60
2023-02-01T16:11:22.469Z,98630.76
2023-02-01T16:16:25.561Z,98628.41
2023-02-01T16:21:27.140Z,98636.08
2023-02-01T16:26:28.742Z,98638.64
2023-02-01T16:31:32.099Z,98635.08
2023-02-01T16:36:34.581Z,98639.14
2023-02-01T16:41:36.290Z,98636.45
2023-02-01T16:46:44.101Z,98635.06
2023-02-01T16:51:46.705Z,98641.32
2023-02-01T16:56:48.568Z,98637.36
2023-02-01T17:01:50.164Z,98634.09
2023-02-01T17:06:51.737Z,98634.30
2023-02-01T17:11:53.315Z,98636.39
2023-02-01T17:16:55.140Z,98643.65
2023-02-01T17:21:58.927Z,98642.00
2023-02-01T17:27:00.528Z,98648.98
2023-02-01T17:32:05.518Z,98658.64
2023-02-01T17:37:26.183Z,98661.20
2023-02-01T17:42:29.479Z,98662.66
2023-02-01T17:47:31.045Z,98663.09
2023-02-01T17:52:33.123Z,98663.54
2023-02-01T17:57:34.695Z,98665.52
2023-02-01T18:02:36.172Z,98669.64
2023-02-01T18:07:37.736Z,98674.63
2023-02-01T18:12:40.208Z,98669.62
2023-02-01T18:17:41.807Z,98663.73
2023-02-01T18:22:44.355Z,98665.70
2023-02-01T18:27:47.202Z,98661.14
2023-02-01T18:32:49.189Z,98663.08
2023-02-01T18:37:52.923Z,98662.98
2023-02-01T18:42:55.204Z,98663.05
2023-02-01T18:48:00.321Z,98660.41
2023-02-01T18:53:04.590Z,98653.48
2023-02-01T18:58:06.862Z,98648.78
2023-02-01T19:03:11.941Z,98652.59
2023-02-01T19:08:13.506Z,98657.48
2023-02-01T19:13:15.393Z,98647.42
2023-02-01T19:18:19.824Z,98637.69
2023-02-01T19:23:21.602Z,98635.93
2023-02-01T19:28:23.376Z,98633.74
2023-02-01T19:33:24.950Z,98629.06
2023-02-01T19:38:26.630Z,98625.63
2023-02-01T19:43:28.105Z,98627.92
2023-02-01T19:48:31.542Z,98631.45
2023-02-01T19:53:33.400Z,98635.70
2023-02-01T19:58:34.962Z,98634.73
2023-02-01T20:03:35.581Z,98631.13
2023-02-01T20:08:37.046Z,98627.52
2023-02-01T20:13:38.939Z,98628.86
2023-02-01T20:18:40.507Z,98632.15
2023-02-01T20:23:41.980Z,98630.30
2023-02-01T20:28:44.412Z,98631.02
2023-02-01T20:33:46.606Z,98632.23
2023-02-01T20:38:48.132Z,98627.90
2023-02-01T20:43:50.290Z,98624.94
2023-02-01T20:48:52.045Z,98623.41
2023-02-01T20:53:55.049Z,98628.77
2023-02-01T20:59:02.467Z,98629.80
2023-02-01T21:04:04.048Z,98636.38
2023-02-01T21:09:05.520Z,98635.74
2023-02-01T21:14:07.292Z,98630.73
2023-02-01T21:19:09.479Z,98632.14
2023-02-01T21:24:11.775Z,98631.75
2023-02-01T21:29:14.983Z,98630.00
2023-02-01T21:34:17.082Z,98633.52
2023-02-01T21:39:18.740Z,98630.09
2023-02-01T21:44:21.442Z,98627.40
2023-02-01T21:49:27.010Z,98629.52
2023-02-01T21:54:28.585Z,98633.77
2023-02-01T21:59:30.155Z,98642.02
2023-02-01T22:04:32.428Z,98637.17
2023-02-01T22:09:34.734Z,98630.78
2023-02-01T22:14:36.306Z,98629.75
2023-02-01T22:19:38.592Z,98626.91
2023-02-01T22:24:40.062Z,98632.35
2023-02-01T22:29:42.973Z,98635.70
2023-02-01T22:34:44.639Z,98639.01
2023-02-01T22:39:46.111Z,98641.55
2023-02-01T22:44:47.573Z,98636.76
2023-02-01T22:49:50.270Z,98633.36
2023-02-01T22:54:51.732Z,98635.83
2023-02-01T22:59:53.300Z,98639.80
2023-02-01T23:04:54.867Z,98643.48
2023-02-01T23:09:56.436Z,98646.46
2023-02-01T23:15:07.543Z,98647.22
2023-02-01T23:20:15.475Z,98642.83
2023-02-01T23:25:18.148Z,98639.52
2023-02-01T23:30:20.441Z,98637.67
2023-02-01T23:35:22.155Z,98635.12
2023-02-01T23:40:24.507Z,98629.81
2023-02-01T23:45:27.627Z,98629.88
2023-02-01T23:50:29.187Z,98626.30
2023-02-01T23:55:30.862Z,98622.14
